| time (UTC) | temp C | wind direction | speed KPH | gust KPH | rain 1hr cm | rain 24hr cm | rain mn cm | humidity % | barometer mb |
| 20260505054557 | 15 | 48 | 33.8 | 46.7 | 0.00 | 0.00 | 0.00 | 52 | 1004.3 |
| 20260505054022 | 15 | 46 | 32.2 | 48.3 | 0.00 | 0.00 | 0.00 | 52 | 1004.3 |
| 20260505053520 | 15 | 49 | 32.2 | 48.3 | 0.00 | 0.00 | 0.00 | 51 | 1004.3 |
| 20260505053034 | 16 | 30 | 30.6 | 48.3 | 0.00 | 0.00 | 0.00 | 51 | 1004.6 |
| 20260505052521 | 16 | 40 | 30.6 | 41.8 | 0.00 | 0.00 | 0.00 | 51 | 1004.6 |
| 20260505052021 | 16 | 44 | 27.4 | 46.7 | 0.00 | 0.00 | 0.00 | 51 | 1004.8 |
| 20260505051542 | 16 | 22 | 25.7 | 46.7 | 0.00 | 0.00 | 0.00 | 51 | 1004.9 |
| 20260505051022 | 17 | 54 | 32.2 | 46.7 | 0.00 | 0.00 | 0.00 | 50 | 1004.8 |
| 20260505050523 | 17 | 31 | 25.7 | 40.2 | 0.00 | 0.00 | 0.00 | 50 | 1004.4 |
| 20260505041558 | 18 | 64 | 11.3 | 19.3 | 0.00 | 0.00 | 0.00 | 46 | 1002.9 |
| 20260505041023 | 18 | 55 | 12.9 | 19.3 | 0.00 | 0.00 | 0.00 | 45 | 1002.9 |
| 20260505040523 | 18 | 69 | 12.9 | 19.3 | 0.00 | 0.00 | 0.00 | 45 | 1002.7 |
| 20260505040045 | 19 | 69 | 11.3 | 22.5 | 0.00 | 0.00 | 0.00 | 44 | 1002.5 |
| 20260505035521 | 19 | 88 | 14.5 | 22.5 | 0.00 | 0.00 | 0.00 | 44 | 1002.5 |
| 20260505035021 | 19 | 61 | 11.3 | 19.3 | 0.00 | 0.00 | 0.00 | 43 | 1002.5 |
| 20260505034544 | 20 | 78 | 14.5 | 22.5 | 0.00 | 0.00 | 0.00 | 44 | 1002.5 |
| 20260505034026 | 20 | 94 | 12.9 | 22.5 | 0.00 | 0.00 | 0.00 | 43 | 1002.5 |
| 20260505033524 | 20 | 101 | 14.5 | 22.5 | 0.00 | 0.00 | 0.00 | 44 | 1002.3 |
| 20260505033037 | 19 | 103 | 11.3 | 19.3 | 0.00 | 0.00 | 0.00 | 44 | 1002.1 |
| 20260505032525 | 19 | 103 | 9.7 | 14.5 | 0.00 | 0.00 | 0.00 | 44 | 1002.2 |
| 20260505032026 | 19 | 98 | 8.0 | 17.7 | 0.00 | 0.00 | 0.00 | 43 | 1002.3 |
| 20260505031542 | 20 | 98 | 9.7 | 19.3 | 0.00 | 0.00 | 0.00 | 43 | 1002.4 |
| 20260505031023 | 20 | 102 | 12.9 | 19.3 | 0.00 | 0.00 | 0.00 | 42 | 1002.2 |
| 20260505030523 | 20 | 92 | 11.3 | 19.3 | 0.00 | 0.00 | 0.00 | 42 | 1002.0 |
| 20260505030042 | 20 | 84 | 12.9 | 19.3 | 0.00 | 0.00 | 0.00 | 42 | 1002.1 |
| 20260505025522 | 19 | 103 | 12.9 | 17.7 | 0.00 | 0.00 | 0.00 | 42 | 1002.2 |
| 20260505025021 | 19 | 103 | 11.3 | 16.1 | 0.00 | 0.00 | 0.00 | 42 | 1002.2 |
| 20260505024546 | 19 | 103 | 9.7 | 16.1 | 0.00 | 0.00 | 0.00 | 42 | 1002.2 |
| 20260505024023 | 19 | 103 | 9.7 | 16.1 | 0.00 | 0.00 | 0.00 | 42 | 1002.2 |
| 20260505023521 | 19 | 96 | 11.3 | 16.1 | 0.00 | 0.00 | 0.00 | 41 | 1002.0 |
| 20260505023046 | 19 | 88 | 9.7 | 14.5 | 0.00 | 0.00 | 0.00 | 40 | 1001.9 |
| 20260505022527 | 19 | 94 | 9.7 | 12.9 | 0.00 | 0.00 | 0.00 | 39 | 1002.1 |
| 20260505022024 | 19 | 96 | 8.0 | 12.9 | 0.00 | 0.00 | 0.00 | 38 | 1002.0 |
| 20260505021544 | 20 | 98 | 6.4 | 12.9 | 0.00 | 0.00 | 0.00 | 36 | 1002.0 |
| 20260505021023 | 20 | 98 | 8.0 | 16.1 | 0.00 | 0.00 | 0.00 | 36 | 1001.9 |
| 20260505020520 | 21 | 88 | 9.7 | 17.7 | 0.00 | 0.00 | 0.00 | 35 | 1001.8 |
| 20260505020039 | 21 | 93 | 11.3 | 17.7 | 0.00 | 0.00 | 0.00 | 34 | 1001.9 |
| 20260505015521 | 21 | 88 | 12.9 | 19.3 | 0.00 | 0.00 | 0.00 | 33 | 1001.9 |
| 20260505015026 | 22 | 86 | 12.9 | 20.9 | 0.00 | 0.00 | 0.00 | 31 | 1001.7 |
| 20260505014545 | 22 | 79 | 14.5 | 20.9 | 0.00 | 0.00 | 0.00 | 30 | 1001.6 |
| 20260505014021 | 22 | 67 | 14.5 | 20.9 | 0.00 | 0.00 | 0.00 | 30 | 1001.5 |
| 20260505013523 | 22 | 64 | 11.3 | 19.3 | 0.00 | 0.00 | 0.00 | 30 | 1001.3 |
| 20260505013127 | 22 | 61 | 11.3 | 20.9 | 0.00 | 0.00 | 0.00 | 30 | 1001.3 |
| 20260505013041 | 22 | 61 | 11.3 | 20.9 | 0.00 | 0.00 | 0.00 | 30 | 1001.3 |
| 20260505012521 | 23 | 59 | 9.7 | 20.9 | 0.00 | 0.00 | 0.00 | 29 | 1001.2 |
| 20260505012022 | 23 | 49 | 12.9 | 20.9 | 0.00 | 0.00 | 0.00 | 28 | 1001.1 |
| 20260505011542 | 23 | 53 | 11.3 | 19.3 | 0.00 | 0.00 | 0.00 | 28 | 1001.1 |
| 20260505011023 | 24 | 42 | 9.7 | 20.9 | 0.00 | 0.00 | 0.00 | 27 | 1001.2 |
| 20260505010522 | 24 | 61 | 9.7 | 20.9 | 0.00 | 0.00 | 0.00 | 26 | 1001.1 |
| 20260505010043 | 25 | 51 | 11.3 | 22.5 | 0.00 | 0.00 | 0.00 | 25 | 1001.3 |
| 20260505005521 | 25 | 76 | 14.5 | 22.5 | 0.00 | 0.00 | 0.00 | 25 | 1001.1 |
| 20260505005024 | 25 | 61 | 16.1 | 22.5 | 0.00 | 0.00 | 0.00 | 25 | 1001.2 |
| 20260505004536 | 26 | 55 | 12.9 | 20.9 | 0.00 | 0.00 | 0.00 | 24 | 1001.1 |
| 20260505004021 | 26 | 58 | 14.5 | 25.7 | 0.00 | 0.00 | 0.00 | 23 | 1001.1 |
| 20260505003527 | 26 | 66 | 12.9 | 25.7 | 0.00 | 0.00 | 0.00 | 23 | 1001.2 |
| 20260505003041 | 26 | 56 | 16.1 | 25.7 | 0.00 | 0.00 | 0.00 | 22 | 1001.0 |
| 20260505002524 | 26 | 69 | 12.9 | 22.5 | 0.00 | 0.00 | 0.00 | 22 | 1001.1 |
| 20260505002024 | 26 | 67 | 16.1 | 22.5 | 0.00 | 0.00 | 0.00 | 23 | 1001.1 |
| 20260505001549 | 26 | 71 | 12.9 | 22.5 | 0.00 | 0.00 | 0.00 | 23 | 1001.0 |
| 20260505001022 | 26 | 72 | 12.9 | 22.5 | 0.00 | 0.00 | 0.00 | 22 | 1001.2 |
| 20260505000521 | 26 | 58 | 16.1 | 29.0 | 0.00 | 0.00 | 0.00 | 22 | 1001.1 |
| 20260505000049 | 26 | 57 | 16.1 | 29.0 | 0.00 | 0.00 | 0.00 | 23 | 1001.2 |
| 20260504235523 | 26 | 63 | 14.5 | 25.7 | 0.00 | 0.00 | 0.00 | 22 | 1001.1 |
| 20260504235023 | 26 | 55 | 16.1 | 25.7 | 0.00 | 0.00 | 0.00 | 22 | 1001.1 |
| 20260504234546 | 27 | 59 | 16.1 | 24.1 | 0.00 | 0.00 | 0.00 | 21 | 1001.0 |
| 20260504234022 | 27 | 69 | 14.5 | 20.9 | 0.00 | 0.00 | 0.00 | 21 | 1001.2 |
| 20260504233521 | 27 | 74 | 9.7 | 22.5 | 0.00 | 0.00 | 0.00 | 20 | 1001.0 |
| 20260504233040 | 27 | 51 | 14.5 | 22.5 | 0.00 | 0.00 | 0.00 | 20 | 1001.2 |
| 20260504232522 | 27 | 73 | 14.5 | 25.7 | 0.00 | 0.00 | 0.00 | 20 | 1001.2 |
| 20260504232020 | 27 | 66 | 16.1 | 30.6 | 0.00 | 0.00 | 0.00 | 20 | 1001.2 |
| 20260504231556 | 27 | 78 | 19.3 | 30.6 | 0.00 | 0.00 | 0.00 | 20 | 1001.3 |
| 20260504231024 | 27 | 74 | 19.3 | 30.6 | 0.00 | 0.00 | 0.00 | 19 | 1001.2 |
| 20260504230520 | 27 | 69 | 12.9 | 25.7 | 0.00 | 0.00 | 0.00 | 19 | 1001.5 |
| 20260504230043 | 27 | 91 | 12.9 | 25.7 | 0.00 | 0.00 | 0.00 | 20 | 1001.5 |
| 20260504225521 | 28 | 87 | 11.3 | 19.3 | 0.00 | 0.00 | 0.00 | 21 | 1001.3 |
| 20260504225023 | 28 | 107 | 9.7 | 12.9 | 0.00 | 0.00 | 0.00 | 20 | 1001.5 |
| 20260504224541 | 28 | 110 | 6.4 | 11.3 | 0.00 | 0.00 | 0.00 | 17 | 1001.6 |
| 20260504224025 | 28 | 97 | 6.4 | 12.9 | 0.00 | 0.00 | 0.00 | 17 | 1001.5 |
| 20260504223525 | 28 | 107 | 6.4 | 14.5 | 0.00 | 0.00 | 0.00 | 19 | 1001.9 |
| 20260504223040 | 28 | 114 | 6.4 | 14.5 | 0.00 | 0.00 | 0.00 | 16 | 1001.7 |
| 20260504222521 | 28 | 118 | 8.0 | 14.5 | 0.00 | 0.00 | 0.00 | 15 | 1001.9 |
| 20260504222021 | 28 | 117 | 8.0 | 19.3 | 0.00 | 0.00 | 0.00 | 14 | 1001.9 |
| 20260504221543 | 28 | 151 | 9.7 | 19.3 | 0.00 | 0.00 | 0.00 | 14 | 1002.1 |
| 20260504221022 | 29 | 163 | 8.0 | 17.7 | 0.00 | 0.00 | 0.00 | 14 | 1001.9 |
| 20260504220521 | 29 | 171 | 6.4 | 16.1 | 0.00 | 0.00 | 0.00 | 14 | 1001.9 |
| 20260504220045 | 29 | 133 | 6.4 | 14.5 | 0.00 | 0.00 | 0.00 | 15 | 1001.8 |
| 20260504215521 | 29 | 161 | 6.4 | 14.5 | 0.00 | 0.00 | 0.00 | 13 | 1002.0 |
| 20260504215026 | 29 | 151 | 3.2 | 9.7 | 0.00 | 0.00 | 0.00 | 13 | 1002.0 |
| 20260504214543 | 30 | 151 | 4.8 | 9.7 | 0.00 | 0.00 | 0.00 | 13 | 1002.1 |
| 20260504214028 | 30 | 217 | 3.2 | 17.7 | 0.00 | 0.00 | 0.00 | 13 | 1002.2 |
| 20260504213522 | 30 | 241 | 4.8 | 19.3 | 0.00 | 0.00 | 0.00 | 13 | 1002.5 |
| 20260504213044 | 30 | 233 | 12.9 | 19.3 | 0.00 | 0.00 | 0.00 | 14 | 1002.5 |
| 20260504212522 | 30 | 188 | 9.7 | 16.1 | 0.00 | 0.00 | 0.00 | 13 | 1002.7 |
| 20260504212022 | 30 | 328 | 6.4 | 14.5 | 0.00 | 0.00 | 0.00 | 13 | 1002.6 |
| 20260504211548 | 30 | 140 | 3.2 | 19.3 | 0.00 | 0.00 | 0.00 | 13 | 1002.6 |
| 20260504211021 | 30 | 162 | 6.4 | 20.9 | 0.00 | 0.00 | 0.00 | 13 | 1002.5 |
| 20260504210521 | 30 | 199 | 11.3 | 25.7 | 0.00 | 0.00 | 0.00 | 13 | 1002.5 |
| 20260504210100 | 30 | 218 | 14.5 | 24.1 | 0.00 | 0.00 | 0.00 | 13 | 1002.7 |
| 20260504205520 | 30 | 193 | 9.7 | 22.5 | 0.00 | 0.00 | 0.00 | 13 | 1002.8 |
| 20260504205044 | 30 | 170 | 12.9 | 22.5 | 0.00 | 0.00 | 0.00 | 13 | 1002.8 |
| 20260504204548 | 30 | 155 | 6.4 | 19.3 | 0.00 | 0.00 | 0.00 | 13 | 1003.0 |
| 20260504204021 | 30 | 111 | 9.7 | 16.1 | 0.00 | 0.00 | 0.00 | 13 | 1003.1 |
| 20260504203523 | 30 | 69 | 4.8 | 16.1 | 0.00 | 0.00 | 0.00 | 13 | 1003.0 |
| 20260504203048 | 30 | 36 | 4.8 | 16.1 | 0.00 | 0.00 | 0.00 | 12 | 1003.2 |
| 20260504202522 | 30 | 13 | 8.0 | 16.1 | 0.00 | 0.00 | 0.00 | 13 | 1003.3 |
| 20260504202021 | 29 | 5 | 6.4 | 16.1 | 0.00 | 0.00 | 0.00 | 13 | 1003.4 |
| 20260504201548 | 30 | 272 | 8.0 | 20.9 | 0.00 | 0.00 | 0.00 | 13 | 1003.6 |
| 20260504201022 | 30 | 311 | 6.4 | 20.9 | 0.00 | 0.00 | 0.00 | 13 | 1003.8 |
| 20260504200521 | 30 | 232 | 11.3 | 20.9 | 0.00 | 0.00 | 0.00 | 13 | 1003.8 |
| 20260504200042 | 30 | 173 | 8.0 | 19.3 | 0.00 | 0.00 | 0.00 | 13 | 1003.9 |
| 20260504195521 | 30 | 105 | 6.4 | 19.3 | 0.00 | 0.00 | 0.00 | 13 | 1004.1 |
| 20260504195021 | 29 | 42 | 4.8 | 11.3 | 0.00 | 0.00 | 0.00 | 14 | 1003.9 |
| 20260504194559 | 30 | 107 | 6.4 | 14.5 | 0.00 | 0.00 | 0.00 | 14 | 1004.1 |
| 20260504194021 | 30 | 135 | 1.6 | 20.9 | 0.00 | 0.00 | 0.00 | 14 | 1004.2 |
| 20260504193521 | 30 | 138 | 8.0 | 25.7 | 0.00 | 0.00 | 0.00 | 14 | 1004.1 |
| 20260504193036 | 30 | 128 | 3.2 | 25.7 | 0.00 | 0.00 | 0.00 | 14 | 1004.3 |
| 20260504192521 | 30 | 85 | 12.9 | 25.7 | 0.00 | 0.00 | 0.00 | 13 | 1004.2 |
| 20260504192024 | 29 | 51 | 4.8 | 16.1 | 0.00 | 0.00 | 0.00 | 14 | 1004.3 |
| 20260504191547 | 29 | 80 | 4.8 | 16.1 | 0.00 | 0.00 | 0.00 | 14 | 1004.5 |
| 20260504191024 | 29 | 62 | 8.0 | 16.1 | 0.00 | 0.00 | 0.00 | 14 | 1004.4 |
| 20260504190523 | 29 | 5 | 8.0 | 14.5 | 0.00 | 0.00 | 0.00 | 14 | 1004.5 |
| 20260504190057 | 30 | 332 | 4.8 | 14.5 | 0.00 | 0.00 | 0.00 | 13 | 1004.6 |
| 20260504185525 | 30 | 333 | 3.2 | 16.1 | 0.00 | 0.00 | 0.00 | 14 | 1004.5 |
| 20260504185024 | 29 | 46 | 8.0 | 16.1 | 0.00 | 0.00 | 0.00 | 13 | 1004.7 |
| 20260504184555 | 29 | 338 | 8.0 | 14.5 | 0.00 | 0.00 | 0.00 | 14 | 1004.8 |
| 20260504184021 | 28 | 55 | 1.6 | 12.9 | 0.00 | 0.00 | 0.00 | 15 | 1005.0 |
| 20260504183526 | 28 | 346 | 6.4 | 12.9 | 0.00 | 0.00 | 0.00 | 16 | 1005.0 |
| 20260504183041 | 28 | 342 | 3.2 | 12.9 | 0.00 | 0.00 | 0.00 | 17 | 1005.3 |
| 20260504182521 | 28 | 294 | 4.8 | 12.9 | 0.00 | 0.00 | 0.00 | 17 | 1005.1 |
| 20260504182022 | 28 | 311 | 4.8 | 12.9 | 0.00 | 0.00 | 0.00 | 17 | 1005.2 |
| 20260504181543 | 28 | 0 | 3.2 | 14.5 | 0.00 | 0.00 | 0.00 | 18 | 1005.2 |
| 20260504181021 | 28 | 144 | 4.8 | 14.5 | 0.00 | 0.00 | 0.00 | 19 | 1005.4 |
| 20260504180522 | 27 | 215 | 3.2 | 12.9 | 0.00 | 0.00 | 0.00 | 19 | 1005.5 |
| 20260504180057 | 27 | 270 | 6.4 | 12.9 | 0.00 | 0.00 | 0.00 | 19 | 1005.6 |
| 20260504175520 | 27 | 284 | 4.8 | 9.7 | 0.00 | 0.00 | 0.00 | 19 | 1005.4 |
| 20260504175021 | 27 | 5 | 4.8 | 12.9 | 0.00 | 0.00 | 0.00 | 18 | 1005.6 |
| 20260504174545 | 27 | 315 | 4.8 | 14.5 | 0.00 | 0.00 | 0.00 | 19 | 1005.5 |
| 20260504174021 | 27 | 343 | 4.8 | 14.5 | 0.00 | 0.00 | 0.00 | 18 | 1005.6 |
| 20260504173523 | 27 | 337 | 3.2 | 11.3 | 0.00 | 0.00 | 0.00 | 20 | 1005.6 |
| 20260504173053 | 27 | 344 | 4.8 | 14.5 | 0.00 | 0.00 | 0.00 | 20 | 1005.8 |
| 20260504172522 | 27 | 267 | 4.8 | 17.7 | 0.00 | 0.00 | 0.00 | 21 | 1005.8 |
| 20260504172021 | 27 | 258 | 8.0 | 17.7 | 0.00 | 0.00 | 0.00 | 21 | 1005.8 |
| 20260504171542 | 27 | 267 | 8.0 | 19.3 | 0.00 | 0.00 | 0.00 | 21 | 1005.8 |
| 20260504171021 | 27 | 300 | 9.7 | 19.3 | 0.00 | 0.00 | 0.00 | 22 | 1005.7 |
| 20260504170523 | 27 | 332 | 8.0 | 16.1 | 0.00 | 0.00 | 0.00 | 22 | 1005.8 |
| 20260504151022 | 21 | 320 | 11.3 | 17.7 | 0.00 | 0.00 | 0.00 | 37 | 1005.5 |
| 20260504150520 | 20 | 336 | 9.7 | 16.1 | 0.00 | 0.00 | 0.00 | 38 | 1005.5 |
| 20260504141022 | 15 | 321 | 8.0 | 16.1 | 0.00 | 0.00 | 0.00 | 49 | 1005.6 |
| 20260504140524 | 15 | 323 | 8.0 | 16.1 | 0.00 | 0.00 | 0.00 | 50 | 1005.6 |
| 20260504130519 | 10 | 299 | 6.4 | 11.3 | 0.00 | 0.00 | 0.00 | 61 | 1005.7 |
| 20260504110523 | 10 | 225 | 4.8 | 6.4 | 0.00 | 0.00 | 0.00 | 57 | 1005.6 |
| 20260504100522 | 11 | 218 | 4.8 | 8.0 | 0.00 | 0.00 | 0.00 | 52 | 1005.3 |
| 20260504081542 | 10 | 215 | 4.8 | 9.7 | 0.00 | 0.00 | 0.00 | 50 | 1006.2 |
| 20260504081026 | 10 | 215 | 4.8 | 8.0 | 0.00 | 0.00 | 0.00 | 50 | 1006.1 |
| 20260504080522 | 10 | 215 | 3.2 | 8.0 | 0.00 | 0.00 | 0.00 | 49 | 1006.2 |